This is the latest recevied weather packets stored in our database for station/object SQ7KHZ-10. If no packets are shown the sender has not sent any weather packets the latest 10 day(s).
| Time | Temp. | Humidity | Pressure | Rain* | Wind** | Luminosity | Snow |
|---|---|---|---|---|---|---|---|
| 1777536882 | 8.89° C | 45% | 1030.3 hPa | 0 mm | - | - | - |
| 1777535673 | 8.89° C | 45% | 1030.5 hPa | 0 mm | - | - | - |
| 1777534465 | 8.33° C | 46% | 1030.6 hPa | 0 mm | - | - | - |
| 1777533259 | 8.33° C | 48% | 1030.7 hPa | 0 mm | - | - | - |
| 1777532055 | 6.67° C | 54% | 1030.8 hPa | 0 mm | - | - | - |
| 1777530851 | 5.56° C | 62% | 1030.7 hPa | 0 mm | - | - | - |
| 1777529647 | 4.44° C | 63% | 1030.5 hPa | 0 mm | - | - | - |
| 1777528441 | 3.33° C | 64% | 1030.6 hPa | 0 mm | - | - | - |
| 1777527238 | 1.11° C | 76% | 1030.5 hPa | 0 mm | - | - | - |
| 1777526038 | -0.56° C | 88% | 1030.6 hPa | 0 mm | - | - | - |
| 1777524838 | -2.22° C | 89% | 1030.4 hPa | 0 mm | - | - | - |
| 1777523637 | -2.78° C | 88% | 1030.4 hPa | 0 mm | - | - | - |
| 1777522437 | -2.78° C | 88% | 1030.3 hPa | 0 mm | - | - | - |
| 1777521225 | -2.78° C | 86% | 1030 hPa | 0 mm | - | - | - |
| 1777520024 | -3.33° C | 89% | 1030.1 hPa | 0 mm | - | - | - |
| 1777518824 | -3.89° C | 91% | 1030 hPa | 0 mm | - | - | - |
| 1777517588 | -3.33° C | 90% | 1030.2 hPa | 0 mm | - | - | - |
| 1777516376 | -3.89° C | 90% | 1030.1 hPa | 0 mm | - | - | - |
| 1777515164 | -3.33° C | 90% | 1030.2 hPa | 0 mm | - | - | - |
| 1777513964 | -3.33° C | 90% | 1030.1 hPa | 0 mm | - | - | - |
| 1777512752 | -2.78° C | 89% | 1030 hPa | 0 mm | - | - | - |
| 1777511552 | -3.33° C | 89% | 1029.8 hPa | 0 mm | - | - | - |
| 1777510340 | -2.78° C | 89% | 1029.9 hPa | 0 mm | - | - | - |
| 1777509116 | -2.78° C | 88% | 1029.9 hPa | 0 mm | - | - | - |
| 1777507916 | -2.78° C | 87% | 1029.8 hPa | 0 mm | - | - | - |
* Rain latest hour (hover to see other rain measurements)
** Current wind speed in m/s (hover to see current wind gust speed)